PLN weather

Pellston Regional Airport of Emmet County Airport
Pellston, Michigan, United States

Public forecast

Using degrees Fahrenheit for public forecast. Weather courtesy of forecast.io.

Current aviation weather report (METAR) for Pellston Regional Airport of Emmet County Airport

Retrieved 2020/05/30 03:54 UTC (48 minutes ago):

KPLN 300354Z AUTO 30013G19KT 10SM OVC010 11/08 A2999 RMK AO2 CIG 009V013 SLP157 T01060083

Aviation forecast (TAF) for Pellston Regional Airport of Emmet County Airport

Retrieved 2020-05-30 00:22 UTC (4 hours ago):

TAF KPLN 292320Z 3000/3024 31010KT P6SM SCT025 BKN040 FM300400 31008KT P6SM BKN025 FM301500 31012G21KT P6SM BKN040